Terminal Aerodrome Forecast
Issued by NWS Charleston, WV

Current Version | Previous Version | Graphics & Text | Print | Product List | Glossary Off
Versions: 1 2 3 4 5 6 7 8 9 10 11 12 13 14 15 16 17 18 19 20 21 22 23

521
FTUS41 KRLX 301120
TAFEKN
TAF
KEKN 301120Z 3012/3112 00000KT P6SM BKN250
     FM301400 26004KT P6SM BKN050
     FM302000 26008KT P6SM BKN070
     FM302300 26006KT P6SM SCT070
     FM310300 00000KT P6SM SCT080
     FM311100 23004KT P6SM BKN120=

USA.gov is the U.S. government's official web portal to all federal, state and local government web resources and services.